Terminal Aerodrome Forecast
Issued by NWS

Home | Current Version | Previous Version | Text Only | Print | Product List | Glossary On
Versions: 1 2 3 4 5 6 7 8 9 10 11 12 13 14 15 16 17 18
000
FTUS42 KFFC 010525
TAFPDK
TAF
KPDK 010525Z 0106/0206 24007KT P6SM SCT080
     FM011000 26005KT 5SM BR SCT011 SCT060
     FM011400 27008KT P6SM SCT060 PROB30 0119/0123 TSRA BKN035CB
     FM020000 28006KT P6SM BKN100=

USA.gov is the U.S. government's official web portal to all federal, state and local government web resources and services.